createdAt,value
2023-03-21T00:00:34.980Z,80.60
2023-03-21T00:03:38.104Z,80.25
2023-03-21T00:06:40.895Z,79.07
2023-03-21T00:09:43.807Z,79.26
2023-03-21T00:12:50.318Z,78.97
2023-03-21T00:16:06.032Z,79.27
2023-03-21T00:19:19.312Z,79.65
2023-03-21T00:22:22.129Z,79.64
2023-03-21T00:25:24.862Z,79.95
2023-03-21T00:28:28.135Z,80.79
2023-03-21T00:31:32.336Z,80.01
2023-03-21T00:34:42.991Z,80.63
2023-03-21T00:37:52.020Z,80.84
2023-03-21T00:40:56.881Z,80.22
2023-03-21T00:43:59.864Z,80.16
2023-03-21T00:47:07.750Z,80.44
2023-03-21T00:50:12.836Z,80.84
2023-03-21T00:53:17.036Z,80.25
2023-03-21T00:56:19.957Z,80.53
2023-03-21T00:59:22.656Z,80.57
2023-03-21T01:02:27.125Z,80.16
2023-03-21T01:05:45.501Z,80.18
2023-03-21T01:08:52.986Z,80.31
2023-03-21T01:11:56.192Z,80.18
2023-03-21T01:14:58.960Z,79.80
2023-03-21T01:18:03.606Z,80.30
2023-03-21T01:21:09.825Z,79.66
2023-03-21T01:24:12.649Z,79.73
2023-03-21T01:27:15.897Z,80.14
2023-03-21T01:30:22.850Z,80.00
2023-03-21T01:37:51.664Z,80.48
2023-03-21T01:40:54.724Z,80.01
2023-03-21T01:43:58.075Z,80.45
2023-03-21T01:47:10.973Z,80.63
2023-03-21T01:50:15.135Z,80.56
2023-03-21T01:53:21.871Z,80.75
2023-03-21T01:56:27.780Z,81.50
2023-03-21T01:59:37.671Z,82.24
2023-03-21T02:02:58.162Z,81.90
2023-03-21T02:06:12.438Z,81.77
2023-03-21T02:09:20.616Z,81.30
2023-03-21T02:12:23.709Z,81.79
2023-03-21T02:15:28.129Z,81.78
2023-03-21T02:18:41.000Z,81.72
2023-03-21T02:22:17.489Z,82.02
2023-03-21T02:25:47.852Z,81.76
2023-03-21T02:28:57.034Z,82.20
2023-03-21T02:32:20.403Z,82.00
2023-03-21T02:35:54.120Z,82.31
2023-03-21T02:39:08.591Z,82.45
2023-03-21T02:42:21.327Z,82.43
2023-03-21T02:45:30.221Z,81.72
2023-03-21T02:48:49.821Z,82.16
2023-03-21T02:51:54.793Z,81.75
2023-03-21T02:55:01.153Z,82.07
2023-03-21T02:58:12.757Z,81.87
2023-03-21T03:01:16.079Z,82.05
2023-03-21T03:04:20.703Z,82.42
2023-03-21T03:07:37.631Z,82.04
2023-03-21T03:11:04.524Z,82.24
2023-03-21T03:14:56.431Z,82.07
2023-03-21T03:18:12.318Z,81.93
2023-03-21T03:21:21.759Z,82.27
2023-03-21T03:24:30.191Z,82.57
2023-03-21T03:27:38.708Z,82.88
2023-03-21T03:30:51.280Z,82.99
2023-03-21T03:34:07.114Z,83.02
2023-03-21T03:37:12.587Z,83.51
2023-03-21T03:40:19.333Z,83.40
2023-03-21T03:43:28.964Z,83.51
2023-03-21T03:46:34.247Z,82.88
2023-03-21T03:49:40.391Z,83.54
2023-03-21T03:52:56.043Z,83.21
2023-03-21T03:56:02.719Z,82.92
2023-03-21T03:59:08.307Z,83.23
2023-03-21T04:02:11.587Z,83.69
2023-03-21T04:05:15.180Z,83.18
2023-03-21T04:08:18.235Z,83.21
2023-03-21T04:11:20.956Z,82.74
2023-03-21T04:14:30.626Z,82.48
2023-03-21T04:17:39.472Z,82.76
2023-03-21T04:20:44.915Z,81.79
2023-03-21T04:23:47.907Z,81.57
2023-03-21T04:26:53.960Z,81.27
2023-03-21T04:29:58.171Z,80.68
2023-03-21T04:33:01.231Z,80.38
2023-03-21T04:36:06.541Z,79.77
2023-03-21T04:39:12.548Z,79.50
2023-03-21T04:42:15.682Z,79.15
2023-03-21T04:45:19.812Z,78.83
2023-03-21T04:48:24.765Z,78.26
2023-03-21T04:51:27.392Z,79.03
2023-03-21T04:54:30.010Z,79.38
2023-03-21T04:57:32.652Z,79.60
2023-03-21T05:00:38.384Z,79.26
2023-03-21T05:03:41.543Z,79.42
2023-03-21T05:06:45.166Z,80.09
2023-03-21T05:09:47.794Z,80.31
2023-03-21T05:12:50.391Z,80.28
2023-03-21T05:15:54.702Z,80.86
2023-03-21T05:18:59.028Z,80.89
2023-03-21T05:22:04.485Z,81.01
2023-03-21T05:25:09.008Z,80.95
2023-03-21T05:28:11.616Z,80.94
2023-03-21T05:31:16.621Z,81.04
2023-03-21T05:34:19.266Z,81.07
2023-03-21T05:37:21.962Z,81.39
2023-03-21T05:40:24.665Z,81.53
2023-03-21T05:43:27.593Z,82.52
2023-03-21T05:46:31.651Z,83.12
2023-03-21T05:49:34.368Z,83.37
2023-03-21T05:52:37.052Z,84.77
2023-03-21T05:55:40.684Z,84.58
2023-03-21T05:58:43.552Z,84.66
2023-03-21T06:01:47.583Z,84.53
2023-03-21T06:04:50.314Z,85.05
2023-03-21T06:07:52.941Z,84.83
2023-03-21T06:10:55.601Z,84.78
2023-03-21T06:13:58.314Z,83.23
2023-03-21T06:17:02.314Z,83.33
2023-03-21T06:20:06.929Z,83.42
2023-03-21T06:23:09.715Z,83.64
2023-03-21T06:26:12.417Z,84.02
2023-03-21T06:29:15.116Z,84.24
2023-03-21T06:32:19.122Z,84.14
2023-03-21T06:35:21.751Z,84.54
2023-03-21T06:38:24.931Z,84.26
2023-03-21T06:41:27.620Z,83.12
2023-03-21T06:44:30.427Z,82.92
2023-03-21T06:47:34.469Z,83.25
2023-03-21T06:50:37.225Z,82.95
2023-03-21T06:53:41.469Z,81.50
2023-03-21T06:56:44.132Z,81.03
2023-03-21T06:59:47.550Z,78.98
2023-03-21T07:02:51.866Z,77.90
2023-03-21T07:05:54.579Z,74.83
2023-03-21T07:08:57.982Z,68.36
2023-03-21T07:12:00.715Z,64.20
2023-03-21T07:15:04.879Z,58.78
2023-03-21T07:18:10.368Z,52.37
2023-03-21T07:21:13.457Z,50.97
2023-03-21T07:24:16.094Z,51.69
2023-03-21T07:27:19.759Z,53.43
2023-03-21T07:30:23.075Z,54.64
2023-03-21T07:33:27.474Z,56.27
2023-03-21T07:36:30.643Z,57.23
2023-03-21T07:39:34.888Z,58.46
2023-03-21T07:42:37.661Z,59.17
2023-03-21T07:45:40.863Z,60.08
2023-03-21T07:48:45.096Z,60.63
2023-03-21T07:51:47.737Z,61.26
2023-03-21T07:54:50.428Z,61.11
2023-03-21T07:57:53.311Z,62.16
2023-03-21T08:00:57.277Z,61.98
2023-03-21T08:04:01.216Z,60.78
2023-03-21T08:07:03.966Z,60.80
2023-03-21T08:10:07.912Z,61.57
2023-03-21T08:13:10.845Z,62.21
2023-03-21T08:16:13.529Z,62.13
2023-03-21T08:19:18.748Z,61.95
2023-03-21T08:22:21.610Z,59.39
2023-03-21T08:25:24.272Z,60.48
2023-03-21T08:28:27.060Z,60.90
2023-03-21T08:31:29.746Z,60.23
2023-03-21T08:34:33.742Z,59.74
2023-03-21T08:37:36.570Z,58.81
2023-03-21T08:40:39.371Z,58.91
2023-03-21T08:43:42.267Z,58.95
2023-03-21T08:46:45.097Z,58.40
2023-03-21T08:49:49.439Z,58.58
2023-03-21T08:52:52.134Z,58.26
2023-03-21T08:55:55.876Z,57.32
2023-03-21T08:58:58.931Z,56.95
2023-03-21T09:02:01.644Z,56.65
2023-03-21T09:05:07.646Z,56.11
2023-03-21T09:08:10.318Z,56.77
2023-03-21T09:11:13.075Z,56.28
2023-03-21T09:14:15.915Z,55.11
2023-03-21T09:17:21.127Z,54.83
2023-03-21T09:20:30.763Z,53.90
2023-03-21T09:23:34.096Z,53.06
2023-03-21T09:26:36.942Z,52.78
2023-03-21T09:29:39.547Z,50.92
2023-03-21T09:32:42.633Z,50.29
2023-03-21T09:35:46.789Z,49.04
2023-03-21T09:38:50.790Z,49.89
2023-03-21T09:42:13.159Z,48.57
2023-03-21T09:45:22.719Z,48.09
2023-03-21T09:48:37.678Z,49.09
2023-03-21T09:51:48.741Z,46.37
2023-03-21T09:54:52.195Z,45.29
2023-03-21T09:58:05.769Z,44.01
2023-03-21T10:01:22.322Z,45.79
2023-03-21T10:04:27.661Z,44.88
2023-03-21T10:07:41.763Z,44.30
2023-03-21T10:10:48.585Z,44.29
2023-03-21T10:13:56.402Z,45.50
2023-03-21T10:17:01.756Z,46.75
2023-03-21T10:20:15.422Z,44.92
2023-03-21T10:23:21.777Z,43.97
2023-03-21T10:26:32.448Z,44.36
2023-03-21T10:29:42.229Z,44.34
2023-03-21T10:32:44.961Z,42.72
2023-03-21T10:35:51.590Z,42.93
2023-03-21T10:39:01.237Z,42.50
2023-03-21T10:42:05.704Z,41.82
2023-03-21T10:45:16.442Z,43.41
2023-03-21T10:48:20.330Z,43.32
2023-03-21T10:51:28.234Z,42.69
2023-03-21T10:54:33.312Z,43.14
2023-03-21T10:57:38.391Z,45.87
2023-03-21T11:00:43.260Z,44.42
2023-03-21T11:03:48.182Z,43.30
2023-03-21T11:06:54.832Z,45.10
2023-03-21T11:10:00.422Z,45.04
2023-03-21T11:13:07.876Z,45.65
2023-03-21T11:16:13.060Z,47.79
2023-03-21T11:19:18.676Z,43.80
2023-03-21T11:22:23.920Z,44.61
2023-03-21T11:25:33.810Z,44.47
2023-03-21T11:28:41.844Z,45.01
2023-03-21T11:31:44.841Z,43.88
2023-03-21T11:34:49.750Z,45.24
2023-03-21T11:37:53.835Z,44.29
2023-03-21T11:40:59.390Z,43.03
2023-03-21T11:44:04.256Z,43.07
2023-03-21T11:47:07.036Z,43.27
2023-03-21T11:50:19.928Z,45.25
2023-03-21T11:53:32.975Z,46.11
2023-03-21T11:56:39.528Z,48.03
2023-03-21T11:59:53.665Z,47.79
2023-03-21T12:03:41.493Z,45.78
2023-03-21T12:06:55.134Z,46.81
2023-03-21T12:10:10.200Z,46.39
2023-03-21T12:13:31.163Z,46.54
2023-03-21T12:16:50.601Z,46.74
2023-03-21T12:20:23.410Z,47.12
2023-03-21T12:23:39.089Z,47.50
2023-03-21T12:26:49.027Z,45.17
2023-03-21T12:30:12.536Z,44.59
2023-03-21T12:33:29.510Z,44.94
2023-03-21T12:36:44.793Z,44.64
2023-03-21T12:39:49.721Z,43.16
2023-03-21T12:43:04.644Z,42.47
2023-03-21T12:46:14.665Z,44.33
2023-03-21T12:49:25.026Z,41.73
2023-03-21T12:52:31.540Z,43.74
2023-03-21T12:55:36.593Z,46.12
2023-03-21T12:58:49.030Z,45.30
2023-03-21T13:01:55.958Z,46.01
2023-03-21T13:05:06.911Z,45.24
2023-03-21T13:08:15.676Z,46.88
2023-03-21T13:11:22.113Z,44.02
2023-03-21T13:14:29.174Z,43.12
2023-03-21T13:17:37.096Z,45.30
2023-03-21T13:20:46.758Z,45.11
2023-03-21T13:24:04.095Z,45.70
2023-03-21T13:27:09.051Z,46.44
2023-03-21T13:30:21.612Z,46.57
2023-03-21T13:33:30.155Z,47.17
2023-03-21T13:36:38.019Z,48.75
2023-03-21T13:39:45.404Z,47.39
2023-03-21T13:42:53.519Z,46.71
2023-03-21T13:45:56.266Z,46.06
2023-03-21T13:49:02.147Z,46.37
2023-03-21T13:52:28.056Z,47.61
2023-03-21T13:55:32.385Z,49.12
2023-03-21T13:58:38.839Z,48.70
2023-03-21T14:01:42.340Z,47.64
2023-03-21T14:05:04.263Z,47.18
2023-03-21T14:08:15.629Z,47.34
2023-03-21T14:11:23.620Z,47.33
2023-03-21T14:14:31.004Z,47.32
2023-03-21T14:17:35.786Z,48.29
2023-03-21T14:20:39.461Z,48.28
2023-03-21T14:23:43.566Z,47.22
2023-03-21T14:26:49.343Z,47.35
2023-03-21T14:29:53.323Z,47.59
2023-03-21T14:32:59.177Z,47.25
2023-03-21T14:36:08.755Z,47.88
2023-03-21T14:39:17.725Z,47.94
2023-03-21T14:42:25.944Z,47.59
2023-03-21T14:45:31.031Z,47.15
2023-03-21T14:48:35.654Z,47.72
2023-03-21T14:51:39.048Z,47.97
2023-03-21T14:54:45.315Z,49.13
2023-03-21T14:57:49.450Z,49.38
2023-03-21T15:00:53.549Z,49.16
2023-03-21T15:03:57.467Z,50.85
2023-03-21T15:07:05.173Z,51.18
2023-03-21T15:10:17.842Z,50.97
2023-03-21T15:13:23.430Z,51.26
2023-03-21T15:16:26.125Z,52.69
2023-03-21T15:19:34.716Z,52.45
2023-03-21T15:22:40.668Z,51.98
2023-03-21T15:25:46.368Z,52.97
2023-03-21T15:28:51.353Z,52.83
2023-03-21T15:31:54.593Z,52.39
2023-03-21T15:35:06.886Z,51.34
2023-03-21T15:38:23.944Z,52.33
2023-03-21T15:41:30.824Z,52.76
2023-03-21T15:44:35.230Z,53.46
2023-03-21T15:47:43.602Z,53.10
2023-03-21T15:50:53.153Z,53.26
2023-03-21T15:53:55.879Z,54.07
2023-03-21T15:57:04.467Z,54.98
2023-03-21T16:00:20.278Z,54.34
2023-03-21T16:03:27.189Z,54.83
2023-03-21T16:06:33.459Z,55.43
2023-03-21T16:09:42.677Z,55.64
2023-03-21T16:12:46.833Z,55.71
2023-03-21T16:15:49.746Z,55.34
2023-03-21T16:18:53.167Z,56.31
2023-03-21T16:21:55.906Z,55.16
2023-03-21T16:24:58.683Z,56.03
2023-03-21T16:28:02.736Z,56.65
2023-03-21T16:31:06.078Z,56.58
2023-03-21T16:34:08.912Z,56.14
2023-03-21T16:37:12.246Z,56.67
2023-03-21T16:40:22.890Z,57.19
2023-03-21T16:43:26.963Z,57.17
2023-03-21T16:46:29.791Z,57.20
2023-03-21T16:49:32.746Z,57.01
2023-03-21T16:52:36.065Z,58.52
2023-03-21T16:55:39.223Z,59.06
2023-03-21T16:58:43.364Z,60.72
2023-03-21T17:01:48.297Z,60.07
2023-03-21T17:04:51.498Z,59.18
2023-03-21T17:07:54.417Z,58.73
2023-03-21T17:10:59.103Z,58.34
2023-03-21T17:14:03.351Z,59.47
2023-03-21T17:17:06.108Z,60.52
2023-03-21T17:20:19.534Z,62.57
2023-03-21T17:23:22.234Z,62.64
2023-03-21T17:26:27.430Z,62.16
2023-03-21T17:29:31.632Z,63.50
2023-03-21T17:32:34.304Z,65.06
2023-03-21T17:35:37.085Z,65.87
2023-03-21T17:38:39.802Z,65.92
2023-03-21T17:41:42.502Z,67.09
2023-03-21T17:44:46.610Z,67.56
2023-03-21T17:47:50.236Z,68.57
2023-03-21T17:50:52.958Z,68.74
2023-03-21T17:53:55.603Z,68.89
2023-03-21T17:56:58.333Z,69.47
2023-03-21T18:00:05.316Z,70.13
2023-03-21T18:03:10.454Z,69.36
2023-03-21T18:06:46.194Z,69.98
2023-03-21T18:09:52.449Z,70.10
2023-03-21T18:13:04.235Z,70.14
2023-03-21T18:16:11.439Z,70.52
2023-03-21T18:19:20.753Z,72.25
2023-03-21T18:22:24.832Z,71.88
2023-03-21T18:25:39.647Z,72.52
2023-03-21T18:28:44.615Z,72.70
2023-03-21T18:46:02.759Z,70.76
2023-03-21T20:15:45.982Z,74.55
2023-03-21T20:18:55.556Z,73.23
2023-03-21T20:22:03.041Z,73.07
2023-03-21T20:25:48.422Z,72.91
2023-03-21T20:30:05.396Z,72.86
2023-03-21T20:32:46.974Z,72.86
2023-03-21T20:39:19.023Z,72.50
2023-03-21T20:42:21.689Z,73.08
2023-03-21T20:45:24.331Z,72.77
2023-03-21T20:48:26.990Z,72.94
2023-03-21T20:52:29.460Z,72.99
2023-03-21T20:54:54.921Z,73.43
2023-03-21T20:57:57.609Z,73.83
2023-03-21T21:01:03.936Z,74.20
2023-03-21T21:04:06.965Z,74.48
2023-03-21T21:07:16.289Z,73.99
2023-03-21T21:10:19.065Z,73.74
2023-03-21T21:13:21.803Z,74.05
2023-03-21T21:16:24.520Z,74.13
2023-03-21T21:19:27.531Z,73.96
2023-03-21T21:22:32.481Z,74.25
2023-03-21T21:25:36.124Z,74.42
2023-03-21T21:28:44.084Z,74.86
2023-03-21T21:31:48.717Z,75.11
2023-03-21T21:34:51.437Z,75.19
2023-03-21T21:37:55.429Z,74.82
2023-03-21T21:41:00.644Z,75.28
2023-03-21T21:44:03.467Z,74.79
2023-03-21T21:47:09.471Z,75.27
2023-03-21T21:50:12.498Z,74.71
2023-03-21T21:53:19.058Z,75.19
2023-03-21T21:56:22.623Z,75.38
2023-03-21T21:59:25.355Z,75.19
2023-03-21T22:02:28.059Z,75.61
2023-03-21T22:05:30.747Z,75.41
2023-03-21T22:08:35.153Z,75.82
2023-03-21T22:11:38.003Z,75.46
2023-03-21T22:14:40.936Z,75.03
2023-03-21T22:17:43.641Z,75.34
2023-03-21T22:20:48.536Z,75.53
2023-03-21T22:23:54.028Z,76.32
2023-03-21T22:27:02.450Z,76.21
2023-03-21T22:30:09.107Z,77.45
2023-03-21T22:33:13.291Z,77.15
2023-03-21T22:36:17.206Z,77.48
2023-03-21T22:39:26.722Z,77.33
2023-03-21T22:42:31.662Z,76.48
2023-03-21T22:45:36.619Z,75.87
2023-03-21T22:48:41.775Z,76.74
2023-03-21T22:51:45.411Z,76.90
2023-03-21T22:54:50.414Z,75.89
2023-03-21T22:57:55.271Z,76.58
2023-03-21T23:01:02.563Z,75.85
2023-03-21T23:04:06.144Z,76.19
2023-03-21T23:07:10.206Z,76.30
2023-03-21T23:10:15.064Z,75.43
2023-03-21T23:13:18.798Z,75.66
2023-03-21T23:16:22.832Z,75.86
2023-03-21T23:19:27.762Z,75.37
2023-03-21T23:22:33.027Z,74.57
2023-03-21T23:25:42.332Z,74.05
2023-03-21T23:28:46.466Z,74.26
2023-03-21T23:31:50.687Z,73.07
2023-03-21T23:34:56.167Z,73.51
2023-03-21T23:37:59.785Z,73.53
2023-03-21T23:41:08.520Z,73.98
2023-03-21T23:44:12.009Z,73.78
2023-03-21T23:47:16.095Z,74.30
2023-03-21T23:50:19.967Z,75.12
2023-03-21T23:53:24.104Z,74.76
2023-03-21T23:56:29.487Z,74.88
2023-03-21T23:59:33.666Z,73.89
